Time,TemperatureF,DewpointF,PressureIn,WindDirection,WindDirectionDegrees,WindSpeedMPH,WindSpeedGustMPH,Humidity,HourlyPrecipIn,Conditions,Clouds,dailyrainin,SoftwareType,DateUTC
2013-11-13 00:00:00,26.2,17.8,30.49,NW,314,0.0,2.0,70,0.00,,---,0.01,VWS V14.01,2013-11-13 05:00:00,
2013-11-13 00:01:00,26.2,17.8,30.49,NW,313,0.0,2.0,70,0.00,,---,0.00,VWS V14.01,2013-11-13 05:01:00,
2013-11-13 00:06:00,26.1,18.0,30.49,NW,314,0.0,1.0,71,0.00,,---,0.00,VWS V14.01,2013-11-13 05:06:00,
2013-11-13 00:11:00,26.2,18.1,30.49,NW,313,2.0,2.0,71,0.00,,---,0.00,VWS V14.01,2013-11-13 05:11:00,
2013-11-13 00:16:00,26.2,18.1,30.49,NW,313,1.0,2.0,71,0.00,,---,0.00,VWS V14.01,2013-11-13 05:16:00,
2013-11-13 00:21:00,26.3,18.5,30.49,NW,312,0.0,5.0,72,0.00,,---,0.00,VWS V14.01,2013-11-13 05:21:00,
2013-11-13 00:26:00,26.3,18.5,30.49,NW,314,2.0,5.0,72,0.00,,---,0.00,VWS V14.01,2013-11-13 05:26:00,
2013-11-13 00:31:00,26.2,18.4,30.49,NW,314,2.0,5.0,72,0.00,,---,0.00,VWS V14.01,2013-11-13 05:31:00,
2013-11-13 00:36:00,26.2,18.7,30.49,NW,313,0.0,5.0,73,0.00,,---,0.00,VWS V14.01,2013-11-13 05:36:00,
2013-11-13 00:41:00,26.0,18.5,30.50,NW,313,1.0,5.0,73,0.00,,---,0.00,VWS V14.01,2013-11-13 05:41:00,
2013-11-13 00:46:00,25.9,18.5,30.49,NW,312,2.0,5.0,73,0.00,,---,0.00,VWS V14.01,2013-11-13 05:46:00,
2013-11-13 00:51:00,25.8,18.7,30.49,WNW,288,2.0,5.0,74,0.00,,---,0.00,VWS V14.01,2013-11-13 05:51:00,
2013-11-13 00:56:00,25.7,18.9,30.49,WNW,291,0.0,5.0,75,0.00,,---,0.00,VWS V14.01,2013-11-13 05:56:00,
2013-11-13 01:01:00,25.6,18.8,30.49,WNW,292,1.0,2.0,75,0.00,,---,0.00,VWS V14.01,2013-11-13 06:01:00,
2013-11-13 01:06:00,25.5,18.7,30.49,WNW,292,2.0,3.0,75,0.00,,---,0.00,VWS V14.01,2013-11-13 06:06:00,
2013-11-13 01:11:00,25.4,18.6,30.49,WNW,290,1.0,3.0,75,0.00,,---,0.00,VWS V14.01,2013-11-13 06:11:00,
2013-11-13 01:16:00,25.3,18.8,30.49,WNW,290,0.0,3.0,76,0.00,,---,0.00,VWS V14.01,2013-11-13 06:16:00,
2013-11-13 01:21:00,25.2,18.7,30.49,WNW,290,0.0,3.0,76,0.00,,---,0.00,VWS V14.01,2013-11-13 06:21:00,
2013-11-13 01:26:00,25.0,18.5,30.48,WNW,290,0.0,3.0,76,0.00,,---,0.00,VWS V14.01,2013-11-13 06:26:00,
2013-11-13 01:31:00,24.9,18.4,30.48,WNW,290,0.0,3.0,76,0.00,,---,0.00,VWS V14.01,2013-11-13 06:31:00,
2013-11-13 01:36:00,24.7,18.5,30.48,WNW,290,0.0,3.0,77,0.00,,---,0.00,VWS V14.01,2013-11-13 06:36:00,
2013-11-13 01:41:00,24.6,18.4,30.48,WNW,290,0.0,3.0,77,0.00,,---,0.00,VWS V14.01,2013-11-13 06:41:00,
2013-11-13 01:46:00,24.5,18.3,30.48,WNW,290,0.0,3.0,77,0.00,,---,0.00,VWS V14.01,2013-11-13 06:46:00,
2013-11-13 01:51:00,24.3,18.1,30.48,WNW,290,0.0,3.0,77,0.00,,---,0.00,VWS V14.01,2013-11-13 06:51:00,
2013-11-13 01:56:00,24.2,18.0,30.48,WNW,290,0.0,3.0,77,0.00,,---,0.00,VWS V14.01,2013-11-13 06:56:00,
2013-11-13 02:01:00,24.1,18.2,30.48,WNW,290,0.0,0.0,78,0.00,,---,0.00,VWS V14.01,2013-11-13 07:01:00,
2013-11-13 02:06:00,24.0,18.1,30.48,WNW,290,0.0,0.0,78,0.00,,---,0.00,VWS V14.01,2013-11-13 07:06:00,
2013-11-13 02:11:00,24.0,18.1,30.48,WNW,290,0.0,0.0,78,0.00,,---,0.00,VWS V14.01,2013-11-13 07:11:00,
2013-11-13 02:16:00,23.9,18.0,30.48,WNW,290,0.0,0.0,78,0.00,,---,0.00,VWS V14.01,2013-11-13 07:16:00,
2013-11-13 02:21:00,23.8,18.0,30.48,WNW,290,0.0,0.0,78,0.00,,---,0.00,VWS V14.01,2013-11-13 07:21:00,
2013-11-13 02:26:00,23.7,17.9,30.48,WNW,290,0.0,0.0,78,0.00,,---,0.00,VWS V14.01,2013-11-13 07:26:00,
2013-11-13 02:31:00,23.7,17.9,30.48,WNW,290,0.0,0.0,78,0.00,,---,0.00,VWS V14.01,2013-11-13 07:31:00,
2013-11-13 02:36:00,23.6,17.8,30.47,WNW,290,0.0,1.0,78,0.00,,---,0.00,VWS V14.01,2013-11-13 07:36:00,
2013-11-13 02:41:00,23.5,17.7,30.48,WNW,290,0.0,1.0,78,0.00,,---,0.00,VWS V14.01,2013-11-13 07:41:00,
2013-11-13 02:46:00,23.4,17.9,30.48,WNW,290,0.0,1.0,79,0.00,,---,0.00,VWS V14.01,2013-11-13 07:46:00,
2013-11-13 02:51:00,23.3,17.8,30.48,WNW,290,1.0,1.0,79,0.00,,---,0.00,VWS V14.01,2013-11-13 07:51:00,
2013-11-13 02:56:00,23.2,17.7,30.48,WNW,290,1.0,2.0,79,0.00,,---,0.00,VWS V14.01,2013-11-13 07:56:00,
2013-11-13 03:01:00,23.0,17.5,30.48,WNW,290,0.0,0.0,79,0.00,,---,0.00,VWS V14.01,2013-11-13 08:01:00,
2013-11-13 03:06:00,22.9,17.4,30.48,WNW,290,0.0,1.0,79,0.00,,---,0.00,VWS V14.01,2013-11-13 08:06:00,
2013-11-13 03:11:00,22.8,17.3,30.48,WNW,290,0.0,1.0,79,0.00,,---,0.00,VWS V14.01,2013-11-13 08:11:00,
2013-11-13 03:16:00,22.8,17.3,30.48,WNW,290,0.0,2.0,79,0.00,,---,0.00,VWS V14.01,2013-11-13 08:16:00,
2013-11-13 03:21:00,22.8,17.3,30.48,WNW,290,0.0,2.0,79,0.00,,---,0.00,VWS V14.01,2013-11-13 08:21:00,
2013-11-13 03:26:00,22.7,17.2,30.48,WNW,290,2.0,2.0,79,0.00,,---,0.00,VWS V14.01,2013-11-13 08:26:00,
2013-11-13 03:31:00,22.8,17.3,30.47,WNW,290,0.0,2.0,79,0.00,,---,0.00,VWS V14.01,2013-11-13 08:31:00,
2013-11-13 03:36:00,22.8,17.3,30.47,WNW,290,0.0,2.0,79,0.00,,---,0.00,VWS V14.01,2013-11-13 08:36:00,
2013-11-13 03:41:00,22.8,17.3,30.47,WNW,290,0.0,2.0,79,0.00,,---,0.00,VWS V14.01,2013-11-13 08:41:00,
2013-11-13 03:46:00,22.8,17.3,30.47,WNW,290,1.0,3.0,79,0.00,,---,0.00,VWS V14.01,2013-11-13 08:46:00,
2013-11-13 03:51:00,22.9,17.4,30.47,WNW,290,0.0,3.0,79,0.00,,---,0.00,VWS V14.01,2013-11-13 08:51:00,
2013-11-13 03:56:00,22.9,17.4,30.46,WNW,290,0.0,3.0,79,0.00,,---,0.00,VWS V14.01,2013-11-13 08:56:00,
2013-11-13 04:01:00,22.8,17.3,30.46,WNW,290,2.0,2.0,79,0.00,,---,0.00,VWS V14.01,2013-11-13 09:01:00,
2013-11-13 04:06:00,22.8,17.3,30.46,WNW,290,0.0,2.0,79,0.00,,---,0.00,VWS V14.01,2013-11-13 09:06:00,
2013-11-13 04:11:00,22.8,17.3,30.46,WNW,290,2.0,4.0,79,0.00,,---,0.00,VWS V14.01,2013-11-13 09:11:00,
2013-11-13 04:16:00,22.9,17.4,30.46,WNW,290,0.0,4.0,79,0.00,,---,0.00,VWS V14.01,2013-11-13 09:16:00,
2013-11-13 04:21:00,22.8,17.3,30.46,WNW,290,0.0,4.0,79,0.00,,---,0.00,VWS V14.01,2013-11-13 09:21:00,
2013-11-13 04:26:00,22.8,17.3,30.46,WNW,290,2.0,4.0,79,0.00,,---,0.00,VWS V14.01,2013-11-13 09:26:00,
2013-11-13 04:31:00,22.8,17.3,30.46,WNW,290,0.0,4.0,79,0.00,,---,0.00,VWS V14.01,2013-11-13 09:31:00,
2013-11-13 04:36:00,22.8,17.3,30.46,WNW,290,0.0,4.0,79,0.00,,---,0.00,VWS V14.01,2013-11-13 09:36:00,
2013-11-13 04:41:00,22.8,17.3,30.46,WNW,290,3.0,4.0,79,0.00,,---,0.00,VWS V14.01,2013-11-13 09:41:00,
2013-11-13 04:46:00,22.8,17.3,30.46,West,262,2.0,4.0,79,0.00,,---,0.00,VWS V14.01,2013-11-13 09:46:00,
2013-11-13 04:51:00,22.8,17.3,30.45,West,262,3.0,4.0,79,0.00,,---,0.00,VWS V14.01,2013-11-13 09:51:00,
2013-11-13 04:56:00,22.8,17.3,30.45,West,261,2.0,4.0,79,0.00,,---,0.00,VWS V14.01,2013-11-13 09:56:00,
2013-11-13 05:01:00,22.8,17.3,30.46,West,261,3.0,3.0,79,0.00,,---,0.00,VWS V14.01,2013-11-13 10:01:00,
2013-11-13 05:06:00,22.8,17.3,30.46,West,261,2.0,3.0,79,0.00,,---,0.00,VWS V14.01,2013-11-13 10:06:00,
2013-11-13 05:11:00,22.7,17.2,30.45,West,261,0.0,3.0,79,0.00,,---,0.00,VWS V14.01,2013-11-13 10:11:00,
2013-11-13 05:16:00,22.7,17.2,30.45,West,261,1.0,3.0,79,0.00,,---,0.00,VWS V14.01,2013-11-13 10:16:00,
2013-11-13 05:21:00,22.6,17.1,30.45,West,261,2.0,4.0,79,0.00,,---,0.00,VWS V14.01,2013-11-13 10:21:00,
2013-11-13 05:26:00,22.7,17.2,30.45,West,261,3.0,4.0,79,0.00,,---,0.00,VWS V14.01,2013-11-13 10:26:00,
2013-11-13 05:31:00,22.8,17.3,30.45,West,261,3.0,4.0,79,0.00,,---,0.00,VWS V14.01,2013-11-13 10:31:00,
2013-11-13 05:36:00,22.8,17.3,30.45,West,261,0.0,4.0,79,0.00,,---,0.00,VWS V14.01,2013-11-13 10:36:00,
2013-11-13 05:41:00,22.7,17.2,30.44,West,261,2.0,4.0,79,0.00,,---,0.00,VWS V14.01,2013-11-13 10:41:00,
2013-11-13 05:46:00,22.7,17.2,30.45,West,261,0.0,4.0,79,0.00,,---,0.00,VWS V14.01,2013-11-13 10:46:00,
2013-11-13 05:51:00,22.8,17.3,30.44,West,261,2.0,4.0,79,0.00,,---,0.00,VWS V14.01,2013-11-13 10:51:00,
2013-11-13 05:56:00,22.8,17.3,30.44,West,261,1.0,4.0,79,0.00,,---,0.00,VWS V14.01,2013-11-13 10:56:00,
2013-11-13 06:01:00,22.8,17.3,30.44,West,261,0.0,0.0,79,0.00,,---,0.00,VWS V14.01,2013-11-13 11:01:00,
2013-11-13 06:06:00,22.8,17.3,30.45,West,261,1.0,2.0,79,0.00,,---,0.00,VWS V14.01,2013-11-13 11:06:00,
2013-11-13 06:11:00,22.8,17.3,30.44,West,261,0.0,2.0,79,0.00,,---,0.00,VWS V14.01,2013-11-13 11:11:00,
2013-11-13 06:15:00,22.7,17.2,30.45,West,261,0.0,4.0,79,0.00,,---,0.00,VWS V14.01,2013-11-13 11:15:00,
2013-11-13 06:20:00,22.7,17.2,30.45,West,261,0.0,4.0,79,0.00,,---,0.00,VWS V14.01,2013-11-13 11:20:00,
2013-11-13 06:25:00,22.6,17.1,30.45,West,261,0.0,4.0,79,0.00,,---,0.00,VWS V14.01,2013-11-13 11:25:00,
2013-11-13 06:30:00,22.6,17.1,30.45,West,261,0.0,4.0,79,0.00,,---,0.00,VWS V14.01,2013-11-13 11:30:00,
2013-11-13 06:35:00,22.6,17.1,30.44,West,261,0.0,4.0,79,0.00,,---,0.00,VWS V14.01,2013-11-13 11:35:00,
2013-11-13 06:40:00,22.5,17.0,30.44,West,261,0.0,4.0,79,0.00,,---,0.00,VWS V14.01,2013-11-13 11:40:00,
2013-11-13 06:45:00,22.5,17.0,30.44,West,261,0.0,4.0,79,0.00,,---,0.00,VWS V14.01,2013-11-13 11:45:00,
2013-11-13 06:50:00,22.4,16.9,30.44,West,261,0.0,4.0,79,0.00,,---,0.00,VWS V14.01,2013-11-13 11:50:00,
2013-11-13 06:55:00,22.4,16.9,30.44,West,261,0.0,4.0,79,0.00,,---,0.00,VWS V14.01,2013-11-13 11:55:00,
2013-11-13 07:00:00,22.4,16.9,30.45,West,261,0.0,0.0,79,0.00,,---,0.00,VWS V14.01,2013-11-13 12:00:00,
2013-11-13 07:05:00,22.4,16.9,30.44,West,261,0.0,1.0,79,0.00,,---,0.00,VWS V14.01,2013-11-13 12:05:00,
2013-11-13 07:10:00,22.3,16.8,30.44,West,261,0.0,1.0,79,0.00,,---,0.00,VWS V14.01,2013-11-13 12:10:00,
2013-11-13 07:15:00,22.2,16.7,30.44,West,261,0.0,1.0,79,0.00,,---,0.00,VWS V14.01,2013-11-13 12:15:00,
2013-11-13 07:20:00,22.1,16.6,30.44,West,261,0.0,1.0,79,0.00,,---,0.00,VWS V14.01,2013-11-13 12:20:00,
2013-11-13 07:25:00,22.1,16.6,30.44,West,261,0.0,1.0,79,0.00,,---,0.00,VWS V14.01,2013-11-13 12:25:00,
2013-11-13 07:30:00,22.1,16.6,30.45,West,261,2.0,3.0,79,0.00,,---,0.00,VWS V14.01,2013-11-13 12:30:00,
2013-11-13 07:35:00,22.3,16.8,30.44,West,261,5.0,5.0,79,0.00,,---,0.00,VWS V14.01,2013-11-13 12:35:00,
2013-11-13 07:40:00,22.6,17.1,30.44,West,261,1.0,5.0,79,0.00,,---,0.00,VWS V14.01,2013-11-13 12:40:00,
2013-11-13 07:45:00,22.9,17.4,30.44,West,261,1.0,5.0,79,0.00,,---,0.00,VWS V14.01,2013-11-13 12:45:00,
2013-11-13 07:50:00,23.2,17.7,30.45,West,261,0.0,5.0,79,0.00,,---,0.00,VWS V14.01,2013-11-13 12:50:00,
2013-11-13 07:55:00,23.3,17.8,30.44,West,260,1.0,5.0,79,0.00,,---,0.00,VWS V14.01,2013-11-13 12:55:00,
2013-11-13 08:00:00,23.5,18.0,30.44,West,260,0.0,5.0,79,0.00,,---,0.00,VWS V14.01,2013-11-13 13:00:00,
2013-11-13 08:05:00,23.9,18.4,30.44,West,260,0.0,1.0,79,0.00,,---,0.00,VWS V14.01,2013-11-13 13:05:00,
2013-11-13 08:10:00,24.3,18.7,30.44,West,260,0.0,2.0,79,0.00,,---,0.00,VWS V14.01,2013-11-13 13:10:00,
2013-11-13 08:15:00,24.4,18.8,30.44,West,260,2.0,4.0,79,0.00,,---,0.00,VWS V14.01,2013-11-13 13:15:00,
2013-11-13 08:20:00,24.5,18.9,30.44,West,260,2.0,4.0,79,0.00,,---,0.00,VWS V14.01,2013-11-13 13:20:00,
2013-11-13 08:25:00,24.7,19.1,30.44,SW,218,2.0,6.0,79,0.00,,---,0.00,VWS V14.01,2013-11-13 13:25:00,
2013-11-13 08:30:00,24.9,19.3,30.44,SSW,196,6.0,7.0,79,0.00,,---,0.00,VWS V14.01,2013-11-13 13:30:00,
2013-11-13 08:35:00,25.2,19.6,30.44,SW,214,3.0,9.0,79,0.00,,---,0.00,VWS V14.01,2013-11-13 13:35:00,
2013-11-13 08:40:00,25.6,20.0,30.44,SW,221,6.0,9.0,79,0.00,,---,0.00,VWS V14.01,2013-11-13 13:40:00,
2013-11-13 08:45:00,25.8,20.2,30.43,West,260,2.0,9.0,79,0.00,,---,0.00,VWS V14.01,2013-11-13 13:45:00,
2013-11-13 08:50:00,26.2,20.6,30.43,SW,218,4.0,9.0,79,0.00,,---,0.00,VWS V14.01,2013-11-13 13:50:00,
2013-11-13 08:55:00,26.4,20.8,30.43,SSW,205,4.0,9.0,79,0.00,,---,0.00,VWS V14.01,2013-11-13 13:55:00,
2013-11-13 09:00:00,26.8,21.2,30.43,SW,216,3.0,9.0,79,0.00,,---,0.00,VWS V14.01,2013-11-13 14:00:00,
2013-11-13 09:05:00,27.1,21.2,30.43,SSW,213,7.0,7.0,78,0.00,,---,0.00,VWS V14.01,2013-11-13 14:05:00,
2013-11-13 09:10:00,27.6,21.6,30.43,SW,233,5.0,8.0,78,0.00,,---,0.00,VWS V14.01,2013-11-13 14:10:00,
2013-11-13 09:15:00,28.1,22.1,30.42,WSW,249,3.0,8.0,78,0.00,,---,0.00,VWS V14.01,2013-11-13 14:15:00,
2013-11-13 09:20:00,28.7,22.7,30.42,WSW,253,5.0,8.0,78,0.00,,---,0.00,VWS V14.01,2013-11-13 14:20:00,
2013-11-13 09:25:00,29.4,23.4,30.42,West,266,5.0,8.0,78,0.00,,---,0.00,VWS V14.01,2013-11-13 14:25:00,
2013-11-13 09:30:00,30.2,24.2,30.42,SW,230,6.0,8.0,78,0.00,,---,0.00,VWS V14.01,2013-11-13 14:30:00,
2013-11-13 09:35:00,31.0,24.6,30.41,WNW,299,5.0,10.0,77,0.00,,---,0.00,VWS V14.01,2013-11-13 14:35:00,
2013-11-13 09:40:00,31.3,24.6,30.41,SW,236,6.0,15.0,76,0.00,,---,0.00,VWS V14.01,2013-11-13 14:40:00,
2013-11-13 09:45:00,31.5,24.8,30.41,SW,219,4.0,15.0,76,0.00,,---,0.00,VWS V14.01,2013-11-13 14:45:00,
2013-11-13 09:50:00,31.9,25.2,30.40,SW,231,7.0,15.0,76,0.00,,---,0.00,VWS V14.01,2013-11-13 14:50:00,
2013-11-13 09:55:00,32.1,25.1,30.40,WNW,296,13.0,15.0,75,0.00,,---,0.00,VWS V14.01,2013-11-13 14:55:00,
2013-11-13 10:00:00,32.3,25.0,30.40,NNW,332,10.0,15.0,74,0.00,,---,0.00,VWS V14.01,2013-11-13 15:00:00,
2013-11-13 10:05:00,32.6,25.2,30.40,West,277,15.0,15.0,74,0.00,,---,0.00,VWS V14.01,2013-11-13 15:05:00,
2013-11-13 10:10:00,32.6,25.2,30.40,SW,234,10.0,15.0,74,0.00,,---,0.00,VWS V14.01,2013-11-13 15:10:00,
2013-11-13 10:15:00,32.9,25.2,30.40,WSW,239,9.0,15.0,73,0.00,,---,0.00,VWS V14.01,2013-11-13 15:15:00,
2013-11-13 10:20:00,33.1,25.1,30.40,WSW,246,16.0,19.0,72,0.00,,---,0.00,VWS V14.01,2013-11-13 15:20:00,
2013-11-13 10:25:00,33.3,25.3,30.40,SW,217,11.0,19.0,72,0.00,,---,0.00,VWS V14.01,2013-11-13 15:25:00,
2013-11-13 10:30:00,33.5,25.1,30.39,WSW,252,10.0,19.0,71,0.00,,---,0.00,VWS V14.01,2013-11-13 15:30:00,
2013-11-13 10:35:00,34.0,25.6,30.39,WSW,246,9.0,19.0,71,0.00,,---,0.00,VWS V14.01,2013-11-13 15:35:00,
2013-11-13 10:40:00,34.4,25.6,30.39,WSW,242,7.0,19.0,70,0.00,,---,0.00,VWS V14.01,2013-11-13 15:40:00,
2013-11-13 10:45:00,34.2,25.1,30.39,WSW,250,13.0,19.0,69,0.00,,---,0.00,VWS V14.01,2013-11-13 15:45:00,
2013-11-13 10:50:00,34.4,25.3,30.39,WNW,300,9.0,19.0,69,0.00,,---,0.00,VWS V14.01,2013-11-13 15:50:00,
2013-11-13 10:55:00,34.5,25.4,30.39,West,263,5.0,19.0,69,0.00,,---,0.00,VWS V14.01,2013-11-13 15:55:00,
2013-11-13 11:00:00,35.0,25.2,30.39,WSW,244,15.0,19.0,67,0.00,,---,0.00,VWS V14.01,2013-11-13 16:00:00,
2013-11-13 11:05:00,35.1,24.9,30.39,West,269,6.0,16.0,66,0.00,,---,0.00,VWS V14.01,2013-11-13 16:05:00,
2013-11-13 11:10:00,35.2,24.6,30.38,SW,233,11.0,19.0,65,0.00,,---,0.00,VWS V14.01,2013-11-13 16:10:00,
2013-11-13 11:15:00,35.5,24.5,30.37,WSW,250,4.0,19.0,64,0.00,,---,0.00,VWS V14.01,2013-11-13 16:15:00,
2013-11-13 11:20:00,36.1,25.1,30.37,WSW,238,6.0,19.0,64,0.00,,---,0.00,VWS V14.01,2013-11-13 16:20:00,
2013-11-13 11:25:00,36.5,25.1,30.37,WSW,241,2.0,19.0,63,0.00,,---,0.00,VWS V14.01,2013-11-13 16:25:00,
2013-11-13 11:30:00,36.9,24.3,30.36,WSW,238,7.0,19.0,60,0.00,,---,0.00,VWS V14.01,2013-11-13 16:30:00,
2013-11-13 11:35:00,36.9,23.5,30.36,NNW,327,11.0,23.0,58,0.00,,---,0.00,VWS V14.01,2013-11-13 16:35:00,
2013-11-13 11:40:00,37.0,23.6,30.36,WSW,240,5.0,23.0,58,0.00,,---,0.00,VWS V14.01,2013-11-13 16:40:00,
2013-11-13 11:45:00,37.5,23.7,30.35,WSW,244,12.0,23.0,57,0.00,,---,0.00,VWS V14.01,2013-11-13 16:45:00,
2013-11-13 11:50:00,37.9,23.6,30.35,WSW,251,10.0,23.0,56,0.00,,---,0.00,VWS V14.01,2013-11-13 16:50:00,
2013-11-13 11:55:00,37.9,22.8,30.35,SW,235,13.0,23.0,54,0.00,,---,0.00,VWS V14.01,2013-11-13 16:55:00,
2013-11-13 12:00:00,37.9,22.8,30.35,SW,229,12.0,23.0,54,0.00,,---,0.00,VWS V14.01,2013-11-13 17:00:00,
2013-11-13 12:05:00,38.1,22.0,30.34,West,268,11.0,19.0,52,0.00,,---,0.00,VWS V14.01,2013-11-13 17:05:00,
2013-11-13 12:10:00,38.6,23.0,30.34,WNW,293,13.0,19.0,53,0.00,,---,0.00,VWS V14.01,2013-11-13 17:10:00,
2013-11-13 12:15:00,38.8,22.2,30.34,SW,225,10.0,19.0,51,0.00,,---,0.00,VWS V14.01,2013-11-13 17:15:00,
2013-11-13 12:20:00,38.8,22.2,30.33,West,272,5.0,19.0,51,0.00,,---,0.00,VWS V14.01,2013-11-13 17:20:00,
2013-11-13 12:25:00,39.1,22.0,30.33,WNW,284,12.0,19.0,50,0.00,,---,0.00,VWS V14.01,2013-11-13 17:25:00,
2013-11-13 12:30:00,39.1,21.1,30.33,SW,230,13.0,20.0,48,0.00,,---,0.00,VWS V14.01,2013-11-13 17:30:00,
2013-11-13 12:35:00,39.3,22.2,30.32,SW,230,6.0,20.0,50,0.00,,---,0.00,VWS V14.01,2013-11-13 17:35:00,
2013-11-13 12:40:00,39.4,22.8,30.32,SW,230,11.0,20.0,51,0.00,,---,0.00,VWS V14.01,2013-11-13 17:40:00,
2013-11-13 12:45:00,39.5,22.4,30.32,WSW,257,11.0,20.0,50,0.00,,---,0.00,VWS V14.01,2013-11-13 17:45:00,
2013-11-13 12:50:00,40.1,22.5,30.31,West,275,9.0,20.0,49,0.00,,---,0.00,VWS V14.01,2013-11-13 17:50:00,
2013-11-13 12:55:00,39.7,21.6,30.31,West,270,12.0,20.0,48,0.00,,---,0.00,VWS V14.01,2013-11-13 17:55:00,
2013-11-13 13:00:00,39.6,21.5,30.31,WSW,252,9.0,22.0,48,0.00,,---,0.00,VWS V14.01,2013-11-13 18:00:00,
2013-11-13 13:05:00,40.0,21.9,30.31,WSW,237,8.0,16.0,48,0.00,,---,0.00,VWS V14.01,2013-11-13 18:05:00,
2013-11-13 13:10:00,40.1,21.0,30.31,SSW,209,12.0,20.0,46,0.00,,---,0.00,VWS V14.01,2013-11-13 18:10:00,
2013-11-13 13:15:00,40.1,21.5,30.31,SW,235,10.0,20.0,47,0.00,,---,0.00,VWS V14.01,2013-11-13 18:15:00,
2013-11-13 13:20:00,40.3,20.7,30.31,SW,218,11.0,20.0,45,0.00,,---,0.00,VWS V14.01,2013-11-13 18:20:00,
2013-11-13 13:25:00,40.8,20.6,30.30,WSW,255,14.0,20.0,44,0.00,,---,0.00,VWS V14.01,2013-11-13 18:25:00,
2013-11-13 13:30:00,40.6,20.4,30.30,SW,218,8.0,25.0,44,0.00,,---,0.00,VWS V14.01,2013-11-13 18:30:00,
2013-11-13 13:35:00,40.7,20.0,30.29,SW,226,3.0,25.0,43,0.00,,---,0.00,VWS V14.01,2013-11-13 18:35:00,
2013-11-13 13:40:00,40.7,19.4,30.29,WSW,249,7.0,25.0,42,0.00,,---,0.00,VWS V14.01,2013-11-13 18:40:00,
2013-11-13 13:45:00,40.7,19.4,30.28,NW,304,10.0,25.0,42,0.00,,---,0.00,VWS V14.01,2013-11-13 18:45:00,
2013-11-13 13:50:00,41.2,19.3,30.28,WSW,244,20.0,25.0,41,0.00,,---,0.00,VWS V14.01,2013-11-13 18:50:00,
2013-11-13 13:55:00,41.3,18.8,30.28,SW,218,13.0,25.0,40,0.00,,---,0.00,VWS V14.01,2013-11-13 18:55:00,
2013-11-13 14:00:00,41.1,18.0,30.28,West,259,21.0,25.0,39,0.00,,---,0.00,VWS V14.01,2013-11-13 19:00:00,
2013-11-13 14:05:00,41.5,18.4,30.28,SW,222,5.0,20.0,39,0.00,,---,0.00,VWS V14.01,2013-11-13 19:05:00,
2013-11-13 14:10:00,41.8,18.7,30.28,SW,234,10.0,22.0,39,0.00,,---,0.00,VWS V14.01,2013-11-13 19:10:00,
2013-11-13 14:15:00,41.6,18.5,30.28,West,260,12.0,24.0,39,0.00,,---,0.00,VWS V14.01,2013-11-13 19:15:00,
2013-11-13 14:20:00,41.6,18.5,30.28,WNW,294,16.0,24.0,39,0.00,,---,0.00,VWS V14.01,2013-11-13 19:20:00,
2013-11-13 14:25:00,41.7,18.6,30.27,SW,236,7.0,24.0,39,0.00,,---,0.00,VWS V14.01,2013-11-13 19:25:00,
2013-11-13 14:30:00,41.6,17.9,30.27,SW,221,18.0,24.0,38,0.00,,---,0.00,VWS V14.01,2013-11-13 19:30:00,
2013-11-13 14:35:00,41.3,18.2,30.27,SW,219,16.0,24.0,39,0.00,,---,0.00,VWS V14.01,2013-11-13 19:35:00,
2013-11-13 14:40:00,41.5,17.8,30.26,WSW,242,7.0,24.0,38,0.00,,---,0.00,VWS V14.01,2013-11-13 19:40:00,
2013-11-13 14:45:00,41.8,18.1,30.26,SSW,205,20.0,24.0,38,0.00,,---,0.00,VWS V14.01,2013-11-13 19:45:00,
2013-11-13 14:50:00,42.1,17.7,30.26,WSW,251,10.0,24.0,37,0.00,,---,0.00,VWS V14.01,2013-11-13 19:50:00,
2013-11-13 14:55:00,42.2,17.8,30.26,WSW,250,11.0,24.0,37,0.00,,---,0.00,VWS V14.01,2013-11-13 19:55:00,
2013-11-13 15:00:00,42.4,17.4,30.26,SW,232,9.0,24.0,36,0.00,,---,0.00,VWS V14.01,2013-11-13 20:00:00,
2013-11-13 15:05:00,42.4,17.4,30.26,WSW,237,11.0,24.0,36,0.00,,---,0.00,VWS V14.01,2013-11-13 20:05:00,
2013-11-13 15:10:00,42.2,17.8,30.26,SSW,211,14.0,24.0,37,0.00,,---,0.00,VWS V14.01,2013-11-13 20:10:00,
2013-11-13 15:15:00,42.0,17.6,30.26,WSW,252,13.0,24.0,37,0.00,,---,0.00,VWS V14.01,2013-11-13 20:15:00,
2013-11-13 15:20:00,42.1,17.1,30.25,SW,227,5.0,24.0,36,0.00,,---,0.00,VWS V14.01,2013-11-13 20:20:00,
2013-11-13 15:25:00,42.0,17.0,30.25,West,259,11.0,24.0,36,0.00,,---,0.00,VWS V14.01,2013-11-13 20:25:00,
2013-11-13 15:30:00,42.2,17.2,30.25,WSW,257,6.0,24.0,36,0.00,,---,0.00,VWS V14.01,2013-11-13 20:30:00,
2013-11-13 15:35:00,42.0,17.0,30.25,SW,219,9.0,24.0,36,0.00,,---,0.00,VWS V14.01,2013-11-13 20:35:00,
2013-11-13 15:40:00,41.8,16.8,30.25,West,261,6.0,24.0,36,0.00,,---,0.00,VWS V14.01,2013-11-13 20:40:00,
2013-11-13 15:45:00,42.0,17.0,30.25,SW,220,10.0,24.0,36,0.00,,---,0.00,VWS V14.01,2013-11-13 20:45:00,
2013-11-13 15:50:00,41.9,16.3,30.25,WSW,245,20.0,24.0,35,0.00,,---,0.00,VWS V14.01,2013-11-13 20:50:00,
2013-11-13 15:55:00,41.8,16.2,30.24,WSW,237,13.0,24.0,35,0.00,,---,0.00,VWS V14.01,2013-11-13 20:55:00,
2013-11-13 16:00:00,42.0,16.4,30.24,West,259,12.0,24.0,35,0.00,,---,0.00,VWS V14.01,2013-11-13 21:00:00,
2013-11-13 16:05:00,41.9,16.3,30.24,SW,224,16.0,16.0,35,0.00,,---,0.00,VWS V14.01,2013-11-13 21:05:00,
2013-11-13 16:10:00,41.8,16.8,30.24,WSW,242,7.0,22.0,36,0.00,,---,0.00,VWS V14.01,2013-11-13 21:10:00,
2013-11-13 16:15:00,41.6,16.6,30.23,WSW,246,11.0,22.0,36,0.00,,---,0.00,VWS V14.01,2013-11-13 21:15:00,
2013-11-13 16:20:00,41.4,16.5,30.23,SW,230,4.0,22.0,36,0.00,,---,0.00,VWS V14.01,2013-11-13 21:20:00,
2013-11-13 16:25:00,41.1,16.2,30.23,WNW,303,6.0,22.0,36,0.00,,---,0.00,VWS V14.01,2013-11-13 21:25:00,
2013-11-13 16:30:00,40.8,14.6,30.23,West,261,4.0,23.0,34,0.00,,---,0.00,VWS V14.01,2013-11-13 21:30:00,
2013-11-13 16:35:00,40.6,14.4,30.23,SSW,213,11.0,23.0,34,0.00,,---,0.00,VWS V14.01,2013-11-13 21:35:00,
2013-11-13 16:40:00,40.6,15.8,30.23,SW,215,16.0,23.0,36,0.00,,---,0.00,VWS V14.01,2013-11-13 21:40:00,
2013-11-13 16:45:00,40.2,15.4,30.23,SW,230,5.0,23.0,36,0.00,,---,0.00,VWS V14.01,2013-11-13 21:45:00,
2013-11-13 16:50:00,40.0,15.2,30.22,WSW,240,11.0,23.0,36,0.00,,---,0.00,VWS V14.01,2013-11-13 21:50:00,
2013-11-13 16:55:00,39.8,15.0,30.22,WNW,303,6.0,23.0,36,0.00,,---,0.00,VWS V14.01,2013-11-13 21:55:00,
2013-11-13 17:00:00,39.6,14.9,30.22,WSW,248,9.0,23.0,36,0.00,,---,0.00,VWS V14.01,2013-11-13 22:00:00,
2013-11-13 17:05:00,39.5,14.8,30.22,WSW,238,9.0,17.0,36,0.00,,---,0.00,VWS V14.01,2013-11-13 22:05:00,
2013-11-13 17:10:00,39.4,14.7,30.21,SW,236,13.0,18.0,36,0.00,,---,0.00,VWS V14.01,2013-11-13 22:10:00,
2013-11-13 17:15:00,39.3,15.2,30.21,West,261,11.0,19.0,37,0.00,,---,0.00,VWS V14.01,2013-11-13 22:15:00,
2013-11-13 17:20:00,39.2,15.1,30.21,WSW,244,4.0,19.0,37,0.00,,---,0.00,VWS V14.01,2013-11-13 22:20:00,
2013-11-13 17:25:00,39.1,15.0,30.21,SW,219,17.0,19.0,37,0.00,,---,0.00,VWS V14.01,2013-11-13 22:25:00,
2013-11-13 17:30:00,39.1,15.0,30.21,SW,215,12.0,22.0,37,0.00,,---,0.00,VWS V14.01,2013-11-13 22:30:00,
2013-11-13 17:35:00,38.9,14.9,30.20,SW,236,13.0,22.0,37,0.00,,---,0.00,VWS V14.01,2013-11-13 22:35:00,
2013-11-13 17:40:00,38.9,15.5,30.21,SW,227,2.0,22.0,38,0.00,,---,0.00,VWS V14.01,2013-11-13 22:40:00,
2013-11-13 17:45:00,38.6,15.8,30.20,SW,226,6.0,22.0,39,0.00,,---,0.00,VWS V14.01,2013-11-13 22:45:00,
2013-11-13 17:50:00,38.3,16.7,30.21,SW,223,13.0,23.0,41,0.00,,---,0.00,VWS V14.01,2013-11-13 22:50:00,
2013-11-13 17:55:00,38.1,17.0,30.21,SW,226,13.0,23.0,42,0.00,,---,0.00,VWS V14.01,2013-11-13 22:55:00,
2013-11-13 18:00:00,37.9,17.4,30.21,WNW,286,2.0,23.0,43,0.00,,---,0.00,VWS V14.01,2013-11-13 23:00:00,
2013-11-13 18:05:00,37.6,17.7,30.21,WSW,246,2.0,14.0,44,0.00,,---,0.00,VWS V14.01,2013-11-13 23:05:00,
2013-11-13 18:10:00,37.4,18.0,30.21,SW,217,10.0,16.0,45,0.00,,---,0.00,VWS V14.01,2013-11-13 23:10:00,
2013-11-13 18:15:00,37.4,18.0,30.20,SSW,206,6.0,20.0,45,0.00,,---,0.00,VWS V14.01,2013-11-13 23:15:00,
2013-11-13 18:20:00,37.2,18.3,30.20,WSW,240,5.0,20.0,46,0.00,,---,0.00,VWS V14.01,2013-11-13 23:20:00,
2013-11-13 18:25:00,37.0,18.2,30.20,SSW,209,16.0,21.0,46,0.00,,---,0.00,VWS V14.01,2013-11-13 23:25:00,
2013-11-13 18:30:00,36.8,18.5,30.20,SW,226,16.0,21.0,47,0.00,,---,0.00,VWS V14.01,2013-11-13 23:30:00,
2013-11-13 18:35:00,36.7,18.9,30.20,SW,221,6.0,21.0,48,0.00,,---,0.00,VWS V14.01,2013-11-13 23:35:00,
2013-11-13 18:40:00,36.6,19.3,30.19,East,98,15.0,22.0,49,0.00,,---,0.00,VWS V14.01,2013-11-13 23:40:00,
2013-11-13 18:45:00,36.4,19.1,30.19,South,184,13.0,22.0,49,0.00,,---,0.00,VWS V14.01,2013-11-13 23:45:00,
2013-11-13 18:50:00,36.2,19.4,30.19,SW,235,16.0,22.0,50,0.00,,---,0.00,VWS V14.01,2013-11-13 23:50:00,
2013-11-13 18:55:00,36.1,19.7,30.19,SW,234,8.0,22.0,51,0.00,,---,0.00,VWS V14.01,2013-11-13 23:55:00,
2013-11-13 19:00:00,35.9,20.0,30.19,WSW,240,9.0,22.0,52,0.00,,---,0.00,VWS V14.01,2013-11-14 00:00:00,
2013-11-13 19:05:00,35.9,20.0,30.19,SW,223,14.0,21.0,52,0.00,,---,0.00,VWS V14.01,2013-11-14 00:05:00,
2013-11-13 19:10:00,35.8,20.4,30.19,WSW,256,18.0,21.0,53,0.00,,---,0.00,VWS V14.01,2013-11-14 00:10:00,
2013-11-13 19:15:00,35.8,20.4,30.19,WSW,258,12.0,23.0,53,0.00,,---,0.00,VWS V14.01,2013-11-14 00:15:00,
2013-11-13 19:20:00,35.7,20.3,30.19,SW,232,9.0,23.0,53,0.00,,---,0.00,VWS V14.01,2013-11-14 00:20:00,
2013-11-13 19:25:00,35.5,20.1,30.18,WNW,298,10.0,23.0,53,0.00,,---,0.00,VWS V14.01,2013-11-14 00:25:00,
2013-11-13 19:30:00,35.3,20.3,30.18,West,260,3.0,23.0,54,0.00,,---,0.00,VWS V14.01,2013-11-14 00:30:00,
2013-11-13 19:35:00,35.2,20.7,30.18,SW,224,13.0,23.0,55,0.00,,---,0.00,VWS V14.01,2013-11-14 00:35:00,
2013-11-13 19:40:00,35.1,20.6,30.17,SW,226,16.0,23.0,55,0.00,,---,0.00,VWS V14.01,2013-11-14 00:40:00,
2013-11-13 19:45:00,35.0,20.9,30.17,SW,229,13.0,23.0,56,0.00,,---,0.00,VWS V14.01,2013-11-14 00:45:00,
2013-11-13 19:50:00,35.0,21.3,30.17,West,279,11.0,23.0,57,0.00,,---,0.00,VWS V14.01,2013-11-14 00:50:00,
2013-11-13 19:55:00,34.9,21.2,30.17,SW,217,6.0,24.0,57,0.00,,---,0.00,VWS V14.01,2013-11-14 00:55:00,
2013-11-13 20:00:00,34.8,21.5,30.17,WSW,258,4.0,24.0,58,0.00,,---,0.00,VWS V14.01,2013-11-14 01:00:00,
2013-11-13 20:05:00,34.6,21.8,30.16,SSW,213,6.0,19.0,59,0.00,,---,0.00,VWS V14.01,2013-11-14 01:05:00,
2013-11-13 20:10:00,34.5,21.7,30.16,WSW,241,11.0,21.0,59,0.00,,---,0.00,VWS V14.01,2013-11-14 01:10:00,
2013-11-13 20:15:00,34.4,22.0,30.16,WSW,242,10.0,21.0,60,0.00,,---,0.00,VWS V14.01,2013-11-14 01:15:00,
2013-11-13 20:20:00,34.4,22.0,30.16,SW,221,10.0,21.0,60,0.00,,---,0.00,VWS V14.01,2013-11-14 01:20:00,
2013-11-13 20:25:00,34.4,22.0,30.16,SSE,158,10.0,21.0,60,0.00,,---,0.00,VWS V14.01,2013-11-14 01:25:00,
2013-11-13 20:30:00,34.4,22.0,30.16,SW,226,15.0,23.0,60,0.00,,---,0.00,VWS V14.01,2013-11-14 01:30:00,
2013-11-13 20:35:00,34.4,22.0,30.16,WSW,242,17.0,24.0,60,0.00,,---,0.00,VWS V14.01,2013-11-14 01:35:00,
2013-11-13 20:40:00,34.4,22.0,30.15,SW,221,13.0,24.0,60,0.00,,---,0.00,VWS V14.01,2013-11-14 01:40:00,
2013-11-13 20:45:00,34.4,22.0,30.15,SW,233,7.0,24.0,60,0.00,,---,0.00,VWS V14.01,2013-11-14 01:45:00,
2013-11-13 20:50:00,34.4,22.4,30.15,SW,226,12.0,24.0,61,0.00,,---,0.00,VWS V14.01,2013-11-14 01:50:00,
2013-11-13 20:55:00,34.3,22.3,30.15,South,176,4.0,24.0,61,0.00,,---,0.00,VWS V14.01,2013-11-14 01:55:00,
2013-11-13 21:00:00,34.2,22.2,30.14,West,267,14.0,24.0,61,0.00,,---,0.00,VWS V14.01,2013-11-14 02:00:00,
2013-11-13 21:05:00,34.2,22.2,30.14,South,187,3.0,23.0,61,0.00,,---,0.00,VWS V14.01,2013-11-14 02:05:00,
2013-11-13 21:10:00,34.1,22.5,30.14,SW,224,12.0,23.0,62,0.00,,---,0.00,VWS V14.01,2013-11-14 02:10:00,
2013-11-13 21:15:00,34.1,22.5,30.13,SW,226,14.0,23.0,62,0.00,,---,0.00,VWS V14.01,2013-11-14 02:15:00,
2013-11-13 21:20:00,34.1,22.5,30.14,WSW,237,17.0,23.0,62,0.00,,---,0.00,VWS V14.01,2013-11-14 02:20:00,
2013-11-13 21:25:00,34.1,22.5,30.13,West,259,14.0,23.0,62,0.00,,---,0.00,VWS V14.01,2013-11-14 02:25:00,
2013-11-13 21:30:00,34.0,22.4,30.13,SSW,208,10.0,23.0,62,0.00,,---,0.00,VWS V14.01,2013-11-14 02:30:00,
2013-11-13 21:35:00,34.0,22.4,30.13,SW,230,14.0,23.0,62,0.00,,---,0.00,VWS V14.01,2013-11-14 02:35:00,
2013-11-13 21:40:00,33.9,22.3,30.12,WSW,241,10.0,23.0,62,0.00,,---,0.00,VWS V14.01,2013-11-14 02:40:00,
2013-11-13 21:45:00,34.0,22.0,30.12,NW,325,5.0,23.0,61,0.00,,---,0.00,VWS V14.01,2013-11-14 02:45:00,
2013-11-13 21:50:00,34.0,22.0,30.12,WSW,244,10.0,23.0,61,0.00,,---,0.00,VWS V14.01,2013-11-14 02:50:00,
2013-11-13 21:55:00,34.0,22.0,30.12,SSW,208,4.0,23.0,61,0.00,,---,0.00,VWS V14.01,2013-11-14 02:55:00,
2013-11-13 22:00:00,34.2,22.2,30.12,WNW,302,14.0,23.0,61,0.00,,---,0.00,VWS V14.01,2013-11-14 03:00:00,
2013-11-13 22:05:00,34.2,22.2,30.11,SW,232,9.0,23.0,61,0.00,,---,0.00,VWS V14.01,2013-11-14 03:05:00,
2013-11-13 22:10:00,34.2,21.8,30.11,SW,227,18.0,23.0,60,0.00,,---,0.00,VWS V14.01,2013-11-14 03:10:00,
2013-11-13 22:15:00,34.2,21.8,30.10,WSW,239,12.0,23.0,60,0.00,,---,0.00,VWS V14.01,2013-11-14 03:15:00,
2013-11-13 22:20:00,34.1,21.7,30.10,SW,223,14.0,23.0,60,0.00,,---,0.00,VWS V14.01,2013-11-14 03:20:00,
2013-11-13 22:25:00,34.2,21.8,30.10,WSW,250,7.0,23.0,60,0.00,,---,0.00,VWS V14.01,2013-11-14 03:25:00,
2013-11-13 22:30:00,34.3,21.9,30.10,SW,220,11.0,23.0,60,0.00,,---,0.00,VWS V14.01,2013-11-14 03:30:00,
2013-11-13 22:35:00,34.2,21.8,30.09,SSW,202,14.0,23.0,60,0.00,,---,0.00,VWS V14.01,2013-11-14 03:35:00,
2013-11-13 22:40:00,34.4,21.6,30.09,West,259,3.0,26.0,59,0.00,,---,0.00,VWS V14.01,2013-11-14 03:40:00,
2013-11-13 22:45:00,34.4,21.6,30.09,SSW,211,9.0,26.0,59,0.00,,---,0.00,VWS V14.01,2013-11-14 03:45:00,
2013-11-13 22:50:00,34.4,21.6,30.09,WSW,240,10.0,26.0,59,0.00,,---,0.00,VWS V14.01,2013-11-14 03:50:00,
2013-11-13 22:55:00,34.4,21.6,30.09,SSW,205,13.0,26.0,59,0.00,,---,0.00,VWS V14.01,2013-11-14 03:55:00,
2013-11-13 23:00:00,34.4,21.2,30.09,SW,224,16.0,26.0,58,0.00,,---,0.00,VWS V14.01,2013-11-14 04:00:00,
2013-11-13 23:05:00,34.4,21.6,30.08,WSW,253,10.0,22.0,59,0.00,,---,0.00,VWS V14.01,2013-11-14 04:05:00,
2013-11-13 23:10:00,34.4,21.6,30.08,SW,232,19.0,22.0,59,0.00,,---,0.00,VWS V14.01,2013-11-14 04:10:00,
2013-11-13 23:15:00,34.4,21.6,30.08,West,263,11.0,23.0,59,0.00,,---,0.00,VWS V14.01,2013-11-14 04:15:00,
2013-11-13 23:20:00,34.4,21.6,30.08,WSW,240,9.0,23.0,59,0.00,,---,0.00,VWS V14.01,2013-11-14 04:20:00,
2013-11-13 23:25:00,34.3,21.5,30.08,SSW,209,15.0,23.0,59,0.00,,---,0.00,VWS V14.01,2013-11-14 04:25:00,
2013-11-13 23:30:00,34.3,21.5,30.08,West,261,10.0,23.0,59,0.00,,---,0.00,VWS V14.01,2013-11-14 04:30:00,
2013-11-13 23:35:00,34.2,21.4,30.08,SW,229,21.0,23.0,59,0.00,,---,0.00,VWS V14.01,2013-11-14 04:35:00,
2013-11-13 23:40:00,34.1,21.3,30.08,WSW,245,14.0,23.0,59,0.00,,---,0.00,VWS V14.01,2013-11-14 04:40:00,
2013-11-13 23:45:00,34.0,21.2,30.08,WNW,286,7.0,23.0,59,0.00,,---,0.00,VWS V14.01,2013-11-14 04:45:00,
2013-11-13 23:50:00,33.9,21.5,30.08,WSW,256,11.0,23.0,60,0.00,,---,0.00,VWS V14.01,2013-11-14 04:50:00,
2013-11-13 23:55:00,33.9,21.5,30.08,WSW,245,11.0,23.0,60,0.00,,---,0.00,VWS V14.01,2013-11-14 04:55:00,